sensor_id;sensor_type;location;lat;lon;timestamp;P1;durP1;ratioP1;P2;durP2;ratioP2
61477;SDS011;47345;52.334;10.392;2023-07-28T00:00:34;6.00;;;3.80;;
61477;SDS011;47345;52.334;10.392;2023-07-28T00:03:05;6.60;;;3.70;;
61477;SDS011;47345;52.334;10.392;2023-07-28T00:05:37;4.50;;;3.70;;
61477;SDS011;47345;52.334;10.392;2023-07-28T00:08:07;6.30;;;3.70;;
61477;SDS011;47345;52.334;10.392;2023-07-28T00:10:41;8.00;;;4.10;;
61477;SDS011;47345;52.334;10.392;2023-07-28T00:13:12;5.30;;;3.00;;
61477;SDS011;47345;52.334;10.392;2023-07-28T00:15:43;3.70;;;3.40;;
61477;SDS011;47345;52.334;10.392;2023-07-28T00:18:14;4.40;;;3.40;;
61477;SDS011;47345;52.334;10.392;2023-07-28T00:20:46;6.40;;;3.60;;
61477;SDS011;47345;52.334;10.392;2023-07-28T00:23:17;6.10;;;3.70;;
61477;SDS011;47345;52.334;10.392;2023-07-28T00:25:48;5.30;;;3.50;;
61477;SDS011;47345;52.334;10.392;2023-07-28T00:28:18;3.70;;;3.30;;
61477;SDS011;47345;52.334;10.392;2023-07-28T00:30:50;4.10;;;3.30;;
61477;SDS011;47345;52.334;10.392;2023-07-28T00:33:21;7.20;;;3.60;;
61477;SDS011;47345;52.334;10.392;2023-07-28T00:35:52;5.00;;;3.60;;
61477;SDS011;47345;52.334;10.392;2023-07-28T00:38:23;9.30;;;3.70;;
61477;SDS011;47345;52.334;10.392;2023-07-28T00:40:55;6.00;;;3.70;;
61477;SDS011;47345;52.334;10.392;2023-07-28T00:43:26;5.50;;;3.40;;
61477;SDS011;47345;52.334;10.392;2023-07-28T00:45:57;5.10;;;3.60;;
61477;SDS011;47345;52.334;10.392;2023-07-28T00:48:29;3.90;;;3.50;;
61477;SDS011;47345;52.334;10.392;2023-07-28T00:50:59;4.90;;;3.60;;
61477;SDS011;47345;52.334;10.392;2023-07-28T00:53:31;7.50;;;3.40;;
61477;SDS011;47345;52.334;10.392;2023-07-28T00:56:03;4.00;;;3.50;;
61477;SDS011;47345;52.334;10.392;2023-07-28T00:58:34;6.50;;;3.70;;
61477;SDS011;47345;52.334;10.392;2023-07-28T01:01:05;10.10;;;3.90;;
61477;SDS011;47345;52.334;10.392;2023-07-28T01:03:36;5.40;;;3.60;;
61477;SDS011;47345;52.334;10.392;2023-07-28T01:06:10;4.90;;;3.50;;
61477;SDS011;47345;52.334;10.392;2023-07-28T01:08:48;3.70;;;3.40;;
61477;SDS011;47345;52.334;10.392;2023-07-28T01:11:25;4.70;;;3.60;;
61477;SDS011;47345;52.334;10.392;2023-07-28T01:13:57;12.80;;;4.00;;
61477;SDS011;47345;52.334;10.392;2023-07-28T01:16:28;5.90;;;4.10;;
61477;SDS011;47345;52.334;10.392;2023-07-28T01:18:59;6.70;;;3.60;;
61477;SDS011;47345;52.334;10.392;2023-07-28T01:21:30;5.60;;;3.80;;
61477;SDS011;47345;52.334;10.392;2023-07-28T01:24:04;7.10;;;3.80;;
61477;SDS011;47345;52.334;10.392;2023-07-28T01:26:44;6.10;;;4.10;;
61477;SDS011;47345;52.334;10.392;2023-07-28T01:29:16;4.70;;;3.90;;
61477;SDS011;47345;52.334;10.392;2023-07-28T01:31:48;4.20;;;3.80;;
61477;SDS011;47345;52.334;10.392;2023-07-28T01:34:20;11.40;;;3.80;;
61477;SDS011;47345;52.334;10.392;2023-07-28T01:36:51;4.50;;;3.90;;
61477;SDS011;47345;52.334;10.392;2023-07-28T01:39:22;4.20;;;3.50;;
61477;SDS011;47345;52.334;10.392;2023-07-28T01:41:52;8.70;;;3.70;;
61477;SDS011;47345;52.334;10.392;2023-07-28T01:44:23;4.00;;;3.60;;
61477;SDS011;47345;52.334;10.392;2023-07-28T01:46:54;6.50;;;4.00;;
61477;SDS011;47345;52.334;10.392;2023-07-28T01:49:25;5.30;;;3.90;;
61477;SDS011;47345;52.334;10.392;2023-07-28T01:51:56;4.60;;;3.90;;
61477;SDS011;47345;52.334;10.392;2023-07-28T01:54:26;6.00;;;3.70;;
61477;SDS011;47345;52.334;10.392;2023-07-28T01:56:57;5.50;;;3.60;;
61477;SDS011;47345;52.334;10.392;2023-07-28T01:59:29;5.80;;;3.40;;
61477;SDS011;47345;52.334;10.392;2023-07-28T02:01:59;5.20;;;3.50;;
61477;SDS011;47345;52.334;10.392;2023-07-28T02:04:30;9.40;;;3.30;;
61477;SDS011;47345;52.334;10.392;2023-07-28T02:07:01;5.20;;;3.40;;
61477;SDS011;47345;52.334;10.392;2023-07-28T02:09:31;4.80;;;3.40;;
61477;SDS011;47345;52.334;10.392;2023-07-28T02:12:02;5.10;;;3.60;;
61477;SDS011;47345;52.334;10.392;2023-07-28T02:14:34;3.60;;;3.30;;
61477;SDS011;47345;52.334;10.392;2023-07-28T02:17:05;5.00;;;3.50;;
61477;SDS011;47345;52.334;10.392;2023-07-28T02:19:36;4.90;;;3.50;;
61477;SDS011;47345;52.334;10.392;2023-07-28T02:22:07;5.10;;;3.60;;
61477;SDS011;47345;52.334;10.392;2023-07-28T02:24:39;9.00;;;3.60;;
61477;SDS011;47345;52.334;10.392;2023-07-28T02:27:09;4.50;;;3.60;;
61477;SDS011;47345;52.334;10.392;2023-07-28T02:29:40;5.70;;;4.00;;
61477;SDS011;47345;52.334;10.392;2023-07-28T02:32:11;6.30;;;3.20;;
61477;SDS011;47345;52.334;10.392;2023-07-28T02:34:42;6.80;;;3.50;;
61477;SDS011;47345;52.334;10.392;2023-07-28T02:37:13;5.00;;;3.10;;
61477;SDS011;47345;52.334;10.392;2023-07-28T02:39:44;8.90;;;3.40;;
61477;SDS011;47345;52.334;10.392;2023-07-28T02:42:15;4.70;;;3.00;;
61477;SDS011;47345;52.334;10.392;2023-07-28T02:44:46;3.10;;;2.80;;
61477;SDS011;47345;52.334;10.392;2023-07-28T02:47:17;3.20;;;2.90;;
61477;SDS011;47345;52.334;10.392;2023-07-28T02:49:48;6.10;;;3.00;;
61477;SDS011;47345;52.334;10.392;2023-07-28T02:52:19;6.60;;;2.60;;
61477;SDS011;47345;52.334;10.392;2023-07-28T02:54:50;4.10;;;2.80;;
61477;SDS011;47345;52.334;10.392;2023-07-28T02:57:21;5.10;;;2.90;;
61477;SDS011;47345;52.334;10.392;2023-07-28T02:59:52;3.80;;;2.70;;
61477;SDS011;47345;52.334;10.392;2023-07-28T03:02:23;4.90;;;2.50;;
61477;SDS011;47345;52.334;10.392;2023-07-28T03:04:54;5.70;;;2.60;;
61477;SDS011;47345;52.334;10.392;2023-07-28T03:07:25;3.30;;;2.20;;
61477;SDS011;47345;52.334;10.392;2023-07-28T03:09:56;5.30;;;2.50;;
61477;SDS011;47345;52.334;10.392;2023-07-28T03:12:26;2.70;;;2.10;;
61477;SDS011;47345;52.334;10.392;2023-07-28T03:14:57;4.00;;;2.20;;
61477;SDS011;47345;52.334;10.392;2023-07-28T03:17:28;2.30;;;2.00;;
61477;SDS011;47345;52.334;10.392;2023-07-28T03:19:59;4.80;;;2.30;;
61477;SDS011;47345;52.334;10.392;2023-07-28T03:22:30;5.30;;;2.10;;
61477;SDS011;47345;52.334;10.392;2023-07-28T03:25:01;1.90;;;1.80;;
61477;SDS011;47345;52.334;10.392;2023-07-28T03:27:32;2.90;;;1.90;;
61477;SDS011;47345;52.334;10.392;2023-07-28T03:30:03;4.20;;;1.90;;
61477;SDS011;47345;52.334;10.392;2023-07-28T03:32:38;3.80;;;2.10;;
61477;SDS011;47345;52.334;10.392;2023-07-28T03:35:10;5.70;;;2.10;;
61477;SDS011;47345;52.334;10.392;2023-07-28T03:37:42;3.80;;;1.80;;
61477;SDS011;47345;52.334;10.392;2023-07-28T03:40:12;2.00;;;1.80;;
61477;SDS011;47345;52.334;10.392;2023-07-28T03:42:43;1.80;;;1.70;;
61477;SDS011;47345;52.334;10.392;2023-07-28T03:45:14;2.00;;;1.90;;
61477;SDS011;47345;52.334;10.392;2023-07-28T03:47:45;2.20;;;2.10;;
61477;SDS011;47345;52.334;10.392;2023-07-28T03:50:16;2.20;;;2.10;;
61477;SDS011;47345;52.334;10.392;2023-07-28T03:52:47;3.70;;;1.90;;
61477;SDS011;47345;52.334;10.392;2023-07-28T03:55:18;3.60;;;1.90;;
61477;SDS011;47345;52.334;10.392;2023-07-28T03:57:49;4.40;;;1.90;;
61477;SDS011;47345;52.334;10.392;2023-07-28T04:00:20;2.60;;;1.80;;
61477;SDS011;47345;52.334;10.392;2023-07-28T04:02:51;2.60;;;2.20;;
61477;SDS011;47345;52.334;10.392;2023-07-28T04:05:22;3.40;;;1.80;;
61477;SDS011;47345;52.334;10.392;2023-07-28T04:07:53;1.90;;;1.80;;
61477;SDS011;47345;52.334;10.392;2023-07-28T04:10:24;2.50;;;1.90;;
61477;SDS011;47345;52.334;10.392;2023-07-28T04:12:55;2.70;;;1.80;;
61477;SDS011;47345;52.334;10.392;2023-07-28T04:15:26;2.70;;;2.00;;
61477;SDS011;47345;52.334;10.392;2023-07-28T04:17:57;3.70;;;2.00;;
61477;SDS011;47345;52.334;10.392;2023-07-28T04:20:28;1.80;;;1.70;;
61477;SDS011;47345;52.334;10.392;2023-07-28T04:22:59;1.70;;;1.60;;
61477;SDS011;47345;52.334;10.392;2023-07-28T04:25:31;1.90;;;1.80;;
61477;SDS011;47345;52.334;10.392;2023-07-28T04:28:02;3.60;;;1.60;;
61477;SDS011;47345;52.334;10.392;2023-07-28T04:30:33;2.60;;;1.80;;
61477;SDS011;47345;52.334;10.392;2023-07-28T04:33:04;2.50;;;1.90;;
61477;SDS011;47345;52.334;10.392;2023-07-28T04:35:35;4.60;;;1.60;;
61477;SDS011;47345;52.334;10.392;2023-07-28T04:38:06;2.40;;;1.40;;
61477;SDS011;47345;52.334;10.392;2023-07-28T04:40:37;2.60;;;1.70;;
61477;SDS011;47345;52.334;10.392;2023-07-28T04:43:08;1.80;;;1.70;;
61477;SDS011;47345;52.334;10.392;2023-07-28T04:45:39;4.70;;;1.90;;
61477;SDS011;47345;52.334;10.392;2023-07-28T04:48:10;1.80;;;1.70;;
61477;SDS011;47345;52.334;10.392;2023-07-28T04:50:41;2.20;;;1.80;;
61477;SDS011;47345;52.334;10.392;2023-07-28T04:53:13;3.50;;;1.70;;
61477;SDS011;47345;52.334;10.392;2023-07-28T04:55:43;2.10;;;1.90;;
61477;SDS011;47345;52.334;10.392;2023-07-28T04:58:15;4.00;;;1.80;;
61477;SDS011;47345;52.334;10.392;2023-07-28T05:00:46;1.90;;;1.70;;
61477;SDS011;47345;52.334;10.392;2023-07-28T05:03:17;2.60;;;1.90;;
61477;SDS011;47345;52.334;10.392;2023-07-28T05:05:48;1.80;;;1.70;;
61477;SDS011;47345;52.334;10.392;2023-07-28T05:08:18;2.20;;;2.00;;
61477;SDS011;47345;52.334;10.392;2023-07-28T05:10:49;2.20;;;1.60;;
61477;SDS011;47345;52.334;10.392;2023-07-28T05:13:20;3.80;;;1.80;;
61477;SDS011;47345;52.334;10.392;2023-07-28T05:15:51;1.80;;;1.70;;
61477;SDS011;47345;52.334;10.392;2023-07-28T05:18:21;3.00;;;2.00;;
61477;SDS011;47345;52.334;10.392;2023-07-28T05:20:52;3.30;;;2.00;;
61477;SDS011;47345;52.334;10.392;2023-07-28T05:23:23;2.00;;;1.80;;
61477;SDS011;47345;52.334;10.392;2023-07-28T05:25:54;2.00;;;1.60;;
61477;SDS011;47345;52.334;10.392;2023-07-28T05:28:25;5.10;;;2.40;;
61477;SDS011;47345;52.334;10.392;2023-07-28T05:31:02;2.60;;;1.90;;
61477;SDS011;47345;52.334;10.392;2023-07-28T05:33:34;19.40;;;2.00;;
61477;SDS011;47345;52.334;10.392;2023-07-28T05:36:07;3.90;;;1.80;;
61477;SDS011;47345;52.334;10.392;2023-07-28T05:38:38;2.60;;;1.80;;
61477;SDS011;47345;52.334;10.392;2023-07-28T05:41:09;1.80;;;1.70;;
61477;SDS011;47345;52.334;10.392;2023-07-28T05:43:39;3.80;;;1.70;;
61477;SDS011;47345;52.334;10.392;2023-07-28T05:46:10;1.90;;;1.80;;
61477;SDS011;47345;52.334;10.392;2023-07-28T05:48:42;1.70;;;1.60;;
61477;SDS011;47345;52.334;10.392;2023-07-28T05:51:13;1.80;;;1.60;;
61477;SDS011;47345;52.334;10.392;2023-07-28T05:53:43;4.00;;;1.60;;
61477;SDS011;47345;52.334;10.392;2023-07-28T05:56:14;1.60;;;1.50;;
61477;SDS011;47345;52.334;10.392;2023-07-28T05:58:45;2.30;;;1.50;;
61477;SDS011;47345;52.334;10.392;2023-07-28T06:01:17;1.90;;;1.70;;
61477;SDS011;47345;52.334;10.392;2023-07-28T06:03:48;1.40;;;1.30;;
61477;SDS011;47345;52.334;10.392;2023-07-28T06:06:20;3.10;;;1.70;;
61477;SDS011;47345;52.334;10.392;2023-07-28T06:08:51;1.60;;;1.50;;
61477;SDS011;47345;52.334;10.392;2023-07-28T06:11:22;2.90;;;1.50;;
61477;SDS011;47345;52.334;10.392;2023-07-28T06:13:54;2.40;;;1.80;;
61477;SDS011;47345;52.334;10.392;2023-07-28T06:16:25;1.70;;;1.60;;
61477;SDS011;47345;52.334;10.392;2023-07-28T06:18:56;12.70;;;1.80;;
61477;SDS011;47345;52.334;10.392;2023-07-28T06:21:27;1.60;;;1.50;;
61477;SDS011;47345;52.334;10.392;2023-07-28T06:23:57;3.10;;;2.50;;
61477;SDS011;47345;52.334;10.392;2023-07-28T06:26:28;2.40;;;1.80;;
61477;SDS011;47345;52.334;10.392;2023-07-28T06:28:59;1.80;;;1.70;;
61477;SDS011;47345;52.334;10.392;2023-07-28T06:31:30;2.20;;;1.70;;
61477;SDS011;47345;52.334;10.392;2023-07-28T06:34:01;2.30;;;1.70;;
61477;SDS011;47345;52.334;10.392;2023-07-28T06:36:31;4.40;;;1.80;;
61477;SDS011;47345;52.334;10.392;2023-07-28T06:39:02;2.90;;;1.80;;
61477;SDS011;47345;52.334;10.392;2023-07-28T06:41:33;2.80;;;1.90;;
61477;SDS011;47345;52.334;10.392;2023-07-28T06:44:04;2.30;;;2.10;;
61477;SDS011;47345;52.334;10.392;2023-07-28T06:46:36;4.10;;;2.30;;
61477;SDS011;47345;52.334;10.392;2023-07-28T06:49:06;2.30;;;2.10;;
61477;SDS011;47345;52.334;10.392;2023-07-28T06:51:37;2.00;;;1.90;;
61477;SDS011;47345;52.334;10.392;2023-07-28T06:54:08;2.40;;;2.20;;
61477;SDS011;47345;52.334;10.392;2023-07-28T06:56:40;2.80;;;2.30;;
61477;SDS011;47345;52.334;10.392;2023-07-28T06:59:11;2.90;;;2.30;;
61477;SDS011;47345;52.334;10.392;2023-07-28T07:01:47;3.20;;;1.80;;
61477;SDS011;47345;52.334;10.392;2023-07-28T07:04:18;3.30;;;2.20;;
61477;SDS011;47345;52.334;10.392;2023-07-28T07:06:50;2.40;;;2.10;;
61477;SDS011;47345;52.334;10.392;2023-07-28T07:09:21;2.10;;;1.90;;
61477;SDS011;47345;52.334;10.392;2023-07-28T07:11:53;3.30;;;2.70;;
61477;SDS011;47345;52.334;10.392;2023-07-28T07:14:23;3.10;;;2.00;;
61477;SDS011;47345;52.334;10.392;2023-07-28T07:16:54;2.10;;;1.90;;
61477;SDS011;47345;52.334;10.392;2023-07-28T07:19:26;1.90;;;1.80;;
61477;SDS011;47345;52.334;10.392;2023-07-28T07:21:57;1.70;;;1.60;;
61477;SDS011;47345;52.334;10.392;2023-07-28T07:24:29;3.50;;;2.00;;
61477;SDS011;47345;52.334;10.392;2023-07-28T07:27:00;2.90;;;1.90;;
61477;SDS011;47345;52.334;10.392;2023-07-28T07:29:31;2.00;;;1.90;;
61477;SDS011;47345;52.334;10.392;2023-07-28T07:32:02;2.10;;;2.00;;
61477;SDS011;47345;52.334;10.392;2023-07-28T07:34:34;4.40;;;2.00;;
61477;SDS011;47345;52.334;10.392;2023-07-28T07:37:06;2.00;;;1.90;;
61477;SDS011;47345;52.334;10.392;2023-07-28T07:39:38;2.40;;;1.90;;
61477;SDS011;47345;52.334;10.392;2023-07-28T07:42:11;3.70;;;2.00;;
61477;SDS011;47345;52.334;10.392;2023-07-28T07:44:43;5.80;;;2.20;;
61477;SDS011;47345;52.334;10.392;2023-07-28T07:47:14;2.30;;;1.90;;
61477;SDS011;47345;52.334;10.392;2023-07-28T07:49:45;6.10;;;2.00;;
61477;SDS011;47345;52.334;10.392;2023-07-28T07:52:16;2.50;;;2.20;;
61477;SDS011;47345;52.334;10.392;2023-07-28T07:54:47;2.10;;;1.80;;
61477;SDS011;47345;52.334;10.392;2023-07-28T07:57:18;2.30;;;2.00;;
61477;SDS011;47345;52.334;10.392;2023-07-28T07:59:49;2.10;;;2.00;;
61477;SDS011;47345;52.334;10.392;2023-07-28T08:02:20;3.50;;;2.40;;
61477;SDS011;47345;52.334;10.392;2023-07-28T08:04:51;2.20;;;2.10;;
61477;SDS011;47345;52.334;10.392;2023-07-28T08:07:23;2.20;;;2.10;;
61477;SDS011;47345;52.334;10.392;2023-07-28T08:09:54;3.10;;;2.40;;
61477;SDS011;47345;52.334;10.392;2023-07-28T08:12:25;2.20;;;2.10;;
61477;SDS011;47345;52.334;10.392;2023-07-28T08:14:56;2.70;;;2.10;;
61477;SDS011;47345;52.334;10.392;2023-07-28T08:17:26;2.90;;;2.70;;
61477;SDS011;47345;52.334;10.392;2023-07-28T08:19:57;3.10;;;2.10;;
61477;SDS011;47345;52.334;10.392;2023-07-28T08:22:28;2.30;;;2.10;;
61477;SDS011;47345;52.334;10.392;2023-07-28T08:25:00;3.00;;;2.20;;
61477;SDS011;47345;52.334;10.392;2023-07-28T08:27:32;7.50;;;2.50;;
61477;SDS011;47345;52.334;10.392;2023-07-28T08:30:03;5.20;;;2.70;;
61477;SDS011;47345;52.334;10.392;2023-07-28T08:32:35;3.80;;;2.30;;
61477;SDS011;47345;52.334;10.392;2023-07-28T08:35:07;2.40;;;2.20;;
61477;SDS011;47345;52.334;10.392;2023-07-28T08:37:38;2.40;;;2.10;;
61477;SDS011;47345;52.334;10.392;2023-07-28T08:40:09;3.10;;;2.30;;
61477;SDS011;47345;52.334;10.392;2023-07-28T08:42:41;4.10;;;2.80;;
61477;SDS011;47345;52.334;10.392;2023-07-28T08:45:12;5.20;;;2.20;;
61477;SDS011;47345;52.334;10.392;2023-07-28T08:47:43;4.70;;;2.20;;
61477;SDS011;47345;52.334;10.392;2023-07-28T08:50:14;2.60;;;2.20;;
61477;SDS011;47345;52.334;10.392;2023-07-28T08:52:45;5.50;;;2.20;;
61477;SDS011;47345;52.334;10.392;2023-07-28T08:55:18;2.50;;;2.30;;
61477;SDS011;47345;52.334;10.392;2023-07-28T08:57:48;4.10;;;2.40;;
61477;SDS011;47345;52.334;10.392;2023-07-28T09:00:20;4.50;;;3.10;;
61477;SDS011;47345;52.334;10.392;2023-07-28T09:02:53;2.60;;;2.30;;
61477;SDS011;47345;52.334;10.392;2023-07-28T09:05:24;2.40;;;2.20;;
61477;SDS011;47345;52.334;10.392;2023-07-28T09:07:57;3.00;;;2.50;;
61477;SDS011;47345;52.334;10.392;2023-07-28T09:10:35;2.60;;;2.40;;
61477;SDS011;47345;52.334;10.392;2023-07-28T09:13:11;3.00;;;2.60;;
61477;SDS011;47345;52.334;10.392;2023-07-28T09:15:45;4.50;;;2.70;;
61477;SDS011;47345;52.334;10.392;2023-07-28T09:18:18;4.60;;;2.40;;
61477;SDS011;47345;52.334;10.392;2023-07-28T09:20:50;2.80;;;2.30;;
61477;SDS011;47345;52.334;10.392;2023-07-28T09:23:26;2.80;;;2.60;;
61477;SDS011;47345;52.334;10.392;2023-07-28T09:26:01;2.60;;;2.40;;
61477;SDS011;47345;52.334;10.392;2023-07-28T09:28:38;3.80;;;2.30;;
61477;SDS011;47345;52.334;10.392;2023-07-28T09:31:10;3.40;;;2.30;;
61477;SDS011;47345;52.334;10.392;2023-07-28T09:33:42;6.40;;;2.30;;
61477;SDS011;47345;52.334;10.392;2023-07-28T09:36:15;2.20;;;2.00;;
61477;SDS011;47345;52.334;10.392;2023-07-28T09:38:46;2.00;;;1.90;;
61477;SDS011;47345;52.334;10.392;2023-07-28T09:41:17;4.30;;;2.30;;
61477;SDS011;47345;52.334;10.392;2023-07-28T09:43:49;2.00;;;1.80;;
61477;SDS011;47345;52.334;10.392;2023-07-28T09:46:21;2.30;;;2.10;;
61477;SDS011;47345;52.334;10.392;2023-07-28T09:48:54;2.00;;;1.80;;
61477;SDS011;47345;52.334;10.392;2023-07-28T09:51:29;3.80;;;1.80;;
61477;SDS011;47345;52.334;10.392;2023-07-28T09:54:04;1.90;;;1.80;;
61477;SDS011;47345;52.334;10.392;2023-07-28T09:59:10;2.50;;;1.80;;
61477;SDS011;47345;52.334;10.392;2023-07-28T10:01:46;3.50;;;1.90;;
61477;SDS011;47345;52.334;10.392;2023-07-28T10:04:16;1.80;;;1.70;;
61477;SDS011;47345;52.334;10.392;2023-07-28T10:06:48;2.10;;;1.90;;
61477;SDS011;47345;52.334;10.392;2023-07-28T10:09:25;1.90;;;1.80;;
61477;SDS011;47345;52.334;10.392;2023-07-28T10:11:57;2.20;;;1.70;;
61477;SDS011;47345;52.334;10.392;2023-07-28T10:14:29;4.60;;;1.70;;
61477;SDS011;47345;52.334;10.392;2023-07-28T10:17:03;1.70;;;1.60;;
61477;SDS011;47345;52.334;10.392;2023-07-28T10:19:35;1.70;;;1.60;;
61477;SDS011;47345;52.334;10.392;2023-07-28T10:22:09;1.70;;;1.60;;
61477;SDS011;47345;52.334;10.392;2023-07-28T10:27:30;1.70;;;1.60;;
61477;SDS011;47345;52.334;10.392;2023-07-28T10:30:09;1.60;;;1.50;;
61477;SDS011;47345;52.334;10.392;2023-07-28T10:32:42;1.70;;;1.60;;
61477;SDS011;47345;52.334;10.392;2023-07-28T10:35:22;1.60;;;1.50;;
61477;SDS011;47345;52.334;10.392;2023-07-28T10:37:55;1.60;;;1.50;;
61477;SDS011;47345;52.334;10.392;2023-07-28T10:40:29;1.70;;;1.60;;
61477;SDS011;47345;52.334;10.392;2023-07-28T10:43:02;1.50;;;1.40;;
61477;SDS011;47345;52.334;10.392;2023-07-28T10:45:33;1.60;;;1.40;;
61477;SDS011;47345;52.334;10.392;2023-07-28T10:48:05;1.50;;;1.40;;
61477;SDS011;47345;52.334;10.392;2023-07-28T10:50:38;1.80;;;1.70;;
61477;SDS011;47345;52.334;10.392;2023-07-28T10:53:10;1.70;;;1.60;;
61477;SDS011;47345;52.334;10.392;2023-07-28T10:55:41;3.10;;;2.30;;
61477;SDS011;47345;52.334;10.392;2023-07-28T10:58:13;2.00;;;1.50;;
61477;SDS011;47345;52.334;10.392;2023-07-28T11:00:45;1.80;;;1.70;;
61477;SDS011;47345;52.334;10.392;2023-07-28T11:03:15;4.70;;;1.70;;
61477;SDS011;47345;52.334;10.392;2023-07-28T11:05:49;2.00;;;1.90;;
61477;SDS011;47345;52.334;10.392;2023-07-28T11:08:20;1.70;;;1.60;;
61477;SDS011;47345;52.334;10.392;2023-07-28T11:10:53;1.80;;;1.70;;
61477;SDS011;47345;52.334;10.392;2023-07-28T11:13:24;1.90;;;1.80;;
61477;SDS011;47345;52.334;10.392;2023-07-28T11:15:58;4.00;;;1.50;;
61477;SDS011;47345;52.334;10.392;2023-07-28T11:18:32;1.80;;;1.70;;
61477;SDS011;47345;52.334;10.392;2023-07-28T11:21:04;1.40;;;1.40;;
61477;SDS011;47345;52.334;10.392;2023-07-28T11:23:35;2.30;;;2.10;;
61477;SDS011;47345;52.334;10.392;2023-07-28T11:26:08;1.90;;;1.60;;
61477;SDS011;47345;52.334;10.392;2023-07-28T11:28:39;2.20;;;1.60;;
61477;SDS011;47345;52.334;10.392;2023-07-28T11:31:11;1.50;;;1.50;;
61477;SDS011;47345;52.334;10.392;2023-07-28T11:33:42;3.20;;;1.60;;
61477;SDS011;47345;52.334;10.392;2023-07-28T11:36:12;1.70;;;1.60;;
61477;SDS011;47345;52.334;10.392;2023-07-28T11:38:53;5.60;;;1.50;;
61477;SDS011;47345;52.334;10.392;2023-07-28T11:41:26;1.70;;;1.60;;
61477;SDS011;47345;52.334;10.392;2023-07-28T11:43:58;1.70;;;1.60;;
61477;SDS011;47345;52.334;10.392;2023-07-28T11:46:36;1.60;;;1.50;;
61477;SDS011;47345;52.334;10.392;2023-07-28T11:49:08;1.50;;;1.40;;
61477;SDS011;47345;52.334;10.392;2023-07-28T11:51:41;1.80;;;1.40;;
61477;SDS011;47345;52.334;10.392;2023-07-28T11:54:12;2.80;;;1.50;;
61477;SDS011;47345;52.334;10.392;2023-07-28T11:56:44;1.60;;;1.50;;
61477;SDS011;47345;52.334;10.392;2023-07-28T11:59:17;1.70;;;1.60;;
61477;SDS011;47345;52.334;10.392;2023-07-28T12:01:57;1.70;;;1.40;;
61477;SDS011;47345;52.334;10.392;2023-07-28T12:04:35;2.50;;;1.70;;
61477;SDS011;47345;52.334;10.392;2023-07-28T12:07:12;1.60;;;1.50;;
61477;SDS011;47345;52.334;10.392;2023-07-28T12:09:51;2.60;;;1.60;;
61477;SDS011;47345;52.334;10.392;2023-07-28T12:12:30;3.00;;;1.70;;
61477;SDS011;47345;52.334;10.392;2023-07-28T12:15:21;1.60;;;1.50;;
61477;SDS011;47345;52.334;10.392;2023-07-28T12:18:03;1.30;;;1.30;;
61477;SDS011;47345;52.334;10.392;2023-07-28T12:20:39;2.30;;;1.50;;
61477;SDS011;47345;52.334;10.392;2023-07-28T12:23:15;1.70;;;1.60;;
61477;SDS011;47345;52.334;10.392;2023-07-28T12:25:50;1.70;;;1.60;;
61477;SDS011;47345;52.334;10.392;2023-07-28T12:28:23;2.50;;;1.60;;
61477;SDS011;47345;52.334;10.392;2023-07-28T12:30:55;1.60;;;1.50;;
61477;SDS011;47345;52.334;10.392;2023-07-28T12:33:27;2.10;;;1.60;;
61477;SDS011;47345;52.334;10.392;2023-07-28T12:36:01;2.50;;;1.80;;
61477;SDS011;47345;52.334;10.392;2023-07-28T12:38:35;1.60;;;1.50;;
61477;SDS011;47345;52.334;10.392;2023-07-28T12:41:08;1.90;;;1.70;;
61477;SDS011;47345;52.334;10.392;2023-07-28T12:43:39;6.80;;;5.80;;
61477;SDS011;47345;52.334;10.392;2023-07-28T12:46:12;1.70;;;1.60;;
61477;SDS011;47345;52.334;10.392;2023-07-28T12:48:44;1.90;;;1.70;;
61477;SDS011;47345;52.334;10.392;2023-07-28T12:51:15;2.70;;;1.50;;
61477;SDS011;47345;52.334;10.392;2023-07-28T12:53:49;1.80;;;1.70;;
61477;SDS011;47345;52.334;10.392;2023-07-28T12:56:20;1.30;;;1.30;;
61477;SDS011;47345;52.334;10.392;2023-07-28T12:58:53;8.90;;;2.10;;
61477;SDS011;47345;52.334;10.392;2023-07-28T13:01:27;20.20;;;2.20;;
61477;SDS011;47345;52.334;10.392;2023-07-28T13:03:58;22.00;;;2.70;;
61477;SDS011;47345;52.334;10.392;2023-07-28T13:06:29;7.30;;;2.20;;
61477;SDS011;47345;52.334;10.392;2023-07-28T13:09:00;2.80;;;1.80;;
61477;SDS011;47345;52.334;10.392;2023-07-28T13:11:34;2.70;;;1.70;;
61477;SDS011;47345;52.334;10.392;2023-07-28T13:14:07;4.00;;;1.70;;
61477;SDS011;47345;52.334;10.392;2023-07-28T13:16:38;5.70;;;1.60;;
61477;SDS011;47345;52.334;10.392;2023-07-28T13:19:09;4.70;;;1.70;;
61477;SDS011;47345;52.334;10.392;2023-07-28T13:21:40;6.70;;;1.80;;
61477;SDS011;47345;52.334;10.392;2023-07-28T13:24:11;1.90;;;1.70;;
61477;SDS011;47345;52.334;10.392;2023-07-28T13:26:41;3.60;;;1.80;;
61477;SDS011;47345;52.334;10.392;2023-07-28T13:29:12;4.10;;;1.80;;
61477;SDS011;47345;52.334;10.392;2023-07-28T13:31:43;4.10;;;1.50;;
61477;SDS011;47345;52.334;10.392;2023-07-28T13:34:14;7.50;;;1.90;;
61477;SDS011;47345;52.334;10.392;2023-07-28T13:36:45;3.80;;;1.90;;
61477;SDS011;47345;52.334;10.392;2023-07-28T13:39:15;3.80;;;2.00;;
61477;SDS011;47345;52.334;10.392;2023-07-28T13:41:47;5.90;;;1.60;;
61477;SDS011;47345;52.334;10.392;2023-07-28T13:44:18;2.00;;;1.80;;
61477;SDS011;47345;52.334;10.392;2023-07-28T13:46:58;2.60;;;2.00;;
61477;SDS011;47345;52.334;10.392;2023-07-28T13:49:28;2.10;;;1.60;;
61477;SDS011;47345;52.334;10.392;2023-07-28T13:51:59;8.30;;;1.80;;
61477;SDS011;47345;52.334;10.392;2023-07-28T13:54:33;2.10;;;1.90;;
61477;SDS011;47345;52.334;10.392;2023-07-28T13:57:24;3.70;;;1.70;;
61477;SDS011;47345;52.334;10.392;2023-07-28T13:59:55;1.90;;;1.70;;
61477;SDS011;47345;52.334;10.392;2023-07-28T14:02:25;4.00;;;1.80;;
61477;SDS011;47345;52.334;10.392;2023-07-28T14:04:57;1.90;;;1.80;;
61477;SDS011;47345;52.334;10.392;2023-07-28T14:07:28;3.30;;;1.70;;
61477;SDS011;47345;52.334;10.392;2023-07-28T14:09:59;1.80;;;1.70;;
61477;SDS011;47345;52.334;10.392;2023-07-28T14:12:32;4.70;;;1.80;;
61477;SDS011;47345;52.334;10.392;2023-07-28T14:15:04;3.30;;;1.70;;
61477;SDS011;47345;52.334;10.392;2023-07-28T14:17:36;2.00;;;1.70;;
61477;SDS011;47345;52.334;10.392;2023-07-28T14:20:08;2.60;;;1.80;;
61477;SDS011;47345;52.334;10.392;2023-07-28T14:22:40;1.70;;;1.60;;
61477;SDS011;47345;52.334;10.392;2023-07-28T14:25:11;2.00;;;1.80;;
61477;SDS011;47345;52.334;10.392;2023-07-28T14:27:42;2.90;;;1.70;;
61477;SDS011;47345;52.334;10.392;2023-07-28T14:30:13;1.80;;;1.70;;
61477;SDS011;47345;52.334;10.392;2023-07-28T14:32:44;2.80;;;1.70;;
61477;SDS011;47345;52.334;10.392;2023-07-28T14:35:15;1.80;;;1.70;;
61477;SDS011;47345;52.334;10.392;2023-07-28T14:37:46;1.80;;;1.70;;
61477;SDS011;47345;52.334;10.392;2023-07-28T14:40:17;1.90;;;1.60;;
61477;SDS011;47345;52.334;10.392;2023-07-28T14:42:48;5.00;;;1.80;;
61477;SDS011;47345;52.334;10.392;2023-07-28T14:45:19;1.90;;;1.80;;
61477;SDS011;47345;52.334;10.392;2023-07-28T14:47:49;1.90;;;1.70;;
61477;SDS011;47345;52.334;10.392;2023-07-28T14:50:20;1.90;;;1.80;;
61477;SDS011;47345;52.334;10.392;2023-07-28T14:52:51;2.20;;;1.90;;
61477;SDS011;47345;52.334;10.392;2023-07-28T14:55:22;1.80;;;1.70;;
61477;SDS011;47345;52.334;10.392;2023-07-28T14:57:53;1.80;;;1.70;;
61477;SDS011;47345;52.334;10.392;2023-07-28T15:00:23;1.70;;;1.60;;
61477;SDS011;47345;52.334;10.392;2023-07-28T15:02:54;1.90;;;1.80;;
61477;SDS011;47345;52.334;10.392;2023-07-28T15:05:25;2.10;;;1.90;;